sensor_id;sensor_type;location;lat;lon;timestamp;temperature;humidity
16643;DHT22;8435;52.184;5.406;2023-04-26T00:02:12;7.70;97.50
16643;DHT22;8435;52.184;5.406;2023-04-26T00:04:40;7.80;97.60
16643;DHT22;8435;52.184;5.406;2023-04-26T00:07:07;7.70;97.60
16643;DHT22;8435;52.184;5.406;2023-04-26T00:09:33;7.70;97.60
16643;DHT22;8435;52.184;5.406;2023-04-26T00:12:02;7.70;97.70
16643;DHT22;8435;52.184;5.406;2023-04-26T00:14:28;7.70;97.80
16643;DHT22;8435;52.184;5.406;2023-04-26T00:16:55;7.60;97.70
16643;DHT22;8435;52.184;5.406;2023-04-26T00:19:22;7.70;97.70
16643;DHT22;8435;52.184;5.406;2023-04-26T00:21:49;7.60;97.70
16643;DHT22;8435;52.184;5.406;2023-04-26T00:24:16;7.60;97.70
16643;DHT22;8435;52.184;5.406;2023-04-26T00:26:42;7.60;97.70
16643;DHT22;8435;52.184;5.406;2023-04-26T00:29:10;7.50;97.80
16643;DHT22;8435;52.184;5.406;2023-04-26T00:31:37;7.50;97.80
16643;DHT22;8435;52.184;5.406;2023-04-26T00:34:04;7.50;97.70
16643;DHT22;8435;52.184;5.406;2023-04-26T00:36:31;7.50;97.70
16643;DHT22;8435;52.184;5.406;2023-04-26T00:38:58;7.50;97.70
16643;DHT22;8435;52.184;5.406;2023-04-26T00:41:24;7.40;97.80
16643;DHT22;8435;52.184;5.406;2023-04-26T00:43:51;7.40;97.90
16643;DHT22;8435;52.184;5.406;2023-04-26T00:46:20;7.40;97.90
16643;DHT22;8435;52.184;5.406;2023-04-26T00:48:50;7.30;98.00
16643;DHT22;8435;52.184;5.406;2023-04-26T00:51:17;7.30;98.10
16643;DHT22;8435;52.184;5.406;2023-04-26T00:53:44;7.30;98.20
16643;DHT22;8435;52.184;5.406;2023-04-26T00:56:11;7.30;98.20
16643;DHT22;8435;52.184;5.406;2023-04-26T00:58:39;7.30;98.50
16643;DHT22;8435;52.184;5.406;2023-04-26T01:01:05;7.20;98.20
16643;DHT22;8435;52.184;5.406;2023-04-26T01:03:34;7.20;98.30
16643;DHT22;8435;52.184;5.406;2023-04-26T01:06:03;7.20;98.50
16643;DHT22;8435;52.184;5.406;2023-04-26T01:08:30;7.10;98.20
16643;DHT22;8435;52.184;5.406;2023-04-26T01:10:57;7.10;98.20
16643;DHT22;8435;52.184;5.406;2023-04-26T01:13:25;7.10;98.30
16643;DHT22;8435;52.184;5.406;2023-04-26T01:15:54;7.10;98.40
16643;DHT22;8435;52.184;5.406;2023-04-26T01:18:21;7.00;98.40
16643;DHT22;8435;52.184;5.406;2023-04-26T01:20:49;7.00;98.40
16643;DHT22;8435;52.184;5.406;2023-04-26T01:23:18;7.00;98.50
16643;DHT22;8435;52.184;5.406;2023-04-26T01:25:45;7.00;98.50
16643;DHT22;8435;52.184;5.406;2023-04-26T01:28:12;6.90;98.40
16643;DHT22;8435;52.184;5.406;2023-04-26T01:30:39;6.90;98.40
16643;DHT22;8435;52.184;5.406;2023-04-26T01:33:06;6.90;98.50
16643;DHT22;8435;52.184;5.406;2023-04-26T01:35:33;6.80;98.60
16643;DHT22;8435;52.184;5.406;2023-04-26T01:38:00;6.80;98.90
16643;DHT22;8435;52.184;5.406;2023-04-26T01:40:28;6.80;98.60
16643;DHT22;8435;52.184;5.406;2023-04-26T01:42:55;6.80;98.70
16643;DHT22;8435;52.184;5.406;2023-04-26T01:45:22;6.80;98.70
16643;DHT22;8435;52.184;5.406;2023-04-26T01:47:48;6.70;98.70
16643;DHT22;8435;52.184;5.406;2023-04-26T01:50:15;6.80;99.00
16643;DHT22;8435;52.184;5.406;2023-04-26T01:52:42;6.70;98.70
16643;DHT22;8435;52.184;5.406;2023-04-26T01:55:09;6.70;98.70
16643;DHT22;8435;52.184;5.406;2023-04-26T01:57:40;6.70;98.80
16643;DHT22;8435;52.184;5.406;2023-04-26T02:00:08;6.70;98.90
16643;DHT22;8435;52.184;5.406;2023-04-26T02:02:35;6.70;98.80
16643;DHT22;8435;52.184;5.406;2023-04-26T02:05:02;6.60;98.80
16643;DHT22;8435;52.184;5.406;2023-04-26T02:07:29;6.70;98.90
16643;DHT22;8435;52.184;5.406;2023-04-26T02:09:56;6.60;98.90
16643;DHT22;8435;52.184;5.406;2023-04-26T02:12:23;6.60;98.90
16643;DHT22;8435;52.184;5.406;2023-04-26T02:14:54;6.60;98.90
16643;DHT22;8435;52.184;5.406;2023-04-26T02:17:21;6.60;99.00
16643;DHT22;8435;52.184;5.406;2023-04-26T02:19:50;6.60;99.00
16643;DHT22;8435;52.184;5.406;2023-04-26T02:22:16;6.60;99.10
16643;DHT22;8435;52.184;5.406;2023-04-26T02:24:43;6.60;99.10
16643;DHT22;8435;52.184;5.406;2023-04-26T02:27:11;6.60;99.10
16643;DHT22;8435;52.184;5.406;2023-04-26T02:29:37;6.50;99.10
16643;DHT22;8435;52.184;5.406;2023-04-26T02:32:05;6.50;99.10
16643;DHT22;8435;52.184;5.406;2023-04-26T02:34:33;6.50;99.20
16643;DHT22;8435;52.184;5.406;2023-04-26T02:36:59;6.50;99.20
16643;DHT22;8435;52.184;5.406;2023-04-26T02:39:26;6.50;99.30
16643;DHT22;8435;52.184;5.406;2023-04-26T02:41:53;6.50;99.30
16643;DHT22;8435;52.184;5.406;2023-04-26T02:44:20;6.50;99.30
16643;DHT22;8435;52.184;5.406;2023-04-26T02:46:48;6.50;99.30
16643;DHT22;8435;52.184;5.406;2023-04-26T02:49:17;6.50;99.30
16643;DHT22;8435;52.184;5.406;2023-04-26T02:51:43;6.50;99.40
16643;DHT22;8435;52.184;5.406;2023-04-26T02:54:10;6.40;99.30
16643;DHT22;8435;52.184;5.406;2023-04-26T02:56:37;6.40;99.40
16643;DHT22;8435;52.184;5.406;2023-04-26T02:59:03;6.40;99.40
16643;DHT22;8435;52.184;5.406;2023-04-26T03:01:32;6.40;99.40
16643;DHT22;8435;52.184;5.406;2023-04-26T03:04:02;6.40;99.50
16643;DHT22;8435;52.184;5.406;2023-04-26T03:06:30;6.30;99.40
16643;DHT22;8435;52.184;5.406;2023-04-26T03:08:57;6.30;99.50
16643;DHT22;8435;52.184;5.406;2023-04-26T03:11:24;6.30;99.50
16643;DHT22;8435;52.184;5.406;2023-04-26T03:13:51;6.30;99.50
16643;DHT22;8435;52.184;5.406;2023-04-26T03:16:18;6.30;99.50
16643;DHT22;8435;52.184;5.406;2023-04-26T03:18:45;6.30;99.50
16643;DHT22;8435;52.184;5.406;2023-04-26T03:21:12;6.20;99.50
16643;DHT22;8435;52.184;5.406;2023-04-26T03:23:43;6.20;99.50
16643;DHT22;8435;52.184;5.406;2023-04-26T03:26:12;6.20;99.60
16643;DHT22;8435;52.184;5.406;2023-04-26T03:28:40;6.20;99.70
16643;DHT22;8435;52.184;5.406;2023-04-26T03:31:07;6.20;99.60
16643;DHT22;8435;52.184;5.406;2023-04-26T03:33:34;6.20;99.70
16643;DHT22;8435;52.184;5.406;2023-04-26T03:36:00;6.10;99.70
16643;DHT22;8435;52.184;5.406;2023-04-26T03:38:29;6.10;99.70
16643;DHT22;8435;52.184;5.406;2023-04-26T03:40:57;6.10;99.70
16643;DHT22;8435;52.184;5.406;2023-04-26T03:43:24;6.10;99.70
16643;DHT22;8435;52.184;5.406;2023-04-26T03:45:51;6.10;99.70
16643;DHT22;8435;52.184;5.406;2023-04-26T03:48:20;6.00;99.70
16643;DHT22;8435;52.184;5.406;2023-04-26T03:50:47;6.00;99.70
16643;DHT22;8435;52.184;5.406;2023-04-26T03:53:14;6.00;99.70
16643;DHT22;8435;52.184;5.406;2023-04-26T03:55:41;6.00;99.70
16643;DHT22;8435;52.184;5.406;2023-04-26T03:58:09;6.00;99.80
16643;DHT22;8435;52.184;5.406;2023-04-26T04:00:36;5.90;99.80
16643;DHT22;8435;52.184;5.406;2023-04-26T04:03:03;5.90;99.80
16643;DHT22;8435;52.184;5.406;2023-04-26T04:05:30;5.90;99.90
16643;DHT22;8435;52.184;5.406;2023-04-26T04:07:57;5.90;99.90
16643;DHT22;8435;52.184;5.406;2023-04-26T04:10:24;5.90;99.90
16643;DHT22;8435;52.184;5.406;2023-04-26T04:12:54;5.90;99.90
16643;DHT22;8435;52.184;5.406;2023-04-26T04:15:22;5.90;99.90
16643;DHT22;8435;52.184;5.406;2023-04-26T04:17:49;5.90;99.90
16643;DHT22;8435;52.184;5.406;2023-04-26T04:20:16;5.90;99.90
16643;DHT22;8435;52.184;5.406;2023-04-26T04:22:44;5.90;99.90
16643;DHT22;8435;52.184;5.406;2023-04-26T04:25:11;5.90;99.90
16643;DHT22;8435;52.184;5.406;2023-04-26T04:27:39;5.90;99.90
16643;DHT22;8435;52.184;5.406;2023-04-26T04:30:07;6.00;99.90
16643;DHT22;8435;52.184;5.406;2023-04-26T04:32:36;6.00;99.90
16643;DHT22;8435;52.184;5.406;2023-04-26T04:35:06;6.00;99.90
16643;DHT22;8435;52.184;5.406;2023-04-26T04:37:33;6.10;99.90
16643;DHT22;8435;52.184;5.406;2023-04-26T04:40:00;6.10;99.90
16643;DHT22;8435;52.184;5.406;2023-04-26T04:42:26;6.10;99.90
16643;DHT22;8435;52.184;5.406;2023-04-26T04:44:53;6.20;99.90
16643;DHT22;8435;52.184;5.406;2023-04-26T04:47:20;6.20;99.90
16643;DHT22;8435;52.184;5.406;2023-04-26T04:49:50;6.30;99.90
16643;DHT22;8435;52.184;5.406;2023-04-26T04:52:18;6.30;99.90
16643;DHT22;8435;52.184;5.406;2023-04-26T04:54:46;6.30;99.90
16643;DHT22;8435;52.184;5.406;2023-04-26T04:57:13;6.40;99.90
16643;DHT22;8435;52.184;5.406;2023-04-26T04:59:41;6.40;99.90
16643;DHT22;8435;52.184;5.406;2023-04-26T05:02:07;6.40;99.90
16643;DHT22;8435;52.184;5.406;2023-04-26T05:04:34;6.40;99.90
16643;DHT22;8435;52.184;5.406;2023-04-26T05:07:02;6.50;99.90
16643;DHT22;8435;52.184;5.406;2023-04-26T05:09:31;6.60;99.90
16643;DHT22;8435;52.184;5.406;2023-04-26T05:12:02;6.60;99.90
16643;DHT22;8435;52.184;5.406;2023-04-26T05:14:29;6.70;99.90
16643;DHT22;8435;52.184;5.406;2023-04-26T05:16:56;6.70;99.90
16643;DHT22;8435;52.184;5.406;2023-04-26T05:19:22;6.70;99.80
16643;DHT22;8435;52.184;5.406;2023-04-26T05:21:50;6.80;99.80
16643;DHT22;8435;52.184;5.406;2023-04-26T05:24:19;6.80;99.90
16643;DHT22;8435;52.184;5.406;2023-04-26T05:26:46;6.90;99.90
16643;DHT22;8435;52.184;5.406;2023-04-26T05:29:15;7.00;99.90
16643;DHT22;8435;52.184;5.406;2023-04-26T05:31:42;7.00;99.90
16643;DHT22;8435;52.184;5.406;2023-04-26T05:34:09;7.20;99.90
16643;DHT22;8435;52.184;5.406;2023-04-26T05:36:37;7.30;99.90
16643;DHT22;8435;52.184;5.406;2023-04-26T05:39:04;7.40;99.90
16643;DHT22;8435;52.184;5.406;2023-04-26T05:41:33;7.50;99.90
16643;DHT22;8435;52.184;5.406;2023-04-26T05:44:01;7.60;99.90
16643;DHT22;8435;52.184;5.406;2023-04-26T05:46:28;7.80;99.70
16643;DHT22;8435;52.184;5.406;2023-04-26T05:48:55;7.90;99.60
16643;DHT22;8435;52.184;5.406;2023-04-26T05:51:22;8.10;99.60
16643;DHT22;8435;52.184;5.406;2023-04-26T05:53:49;8.20;99.60
16643;DHT22;8435;52.184;5.406;2023-04-26T05:56:16;8.40;99.50
16643;DHT22;8435;52.184;5.406;2023-04-26T05:58:44;8.50;99.30
16643;DHT22;8435;52.184;5.406;2023-04-26T06:01:11;8.60;99.30
16643;DHT22;8435;52.184;5.406;2023-04-26T06:03:40;8.80;99.50
16643;DHT22;8435;52.184;5.406;2023-04-26T06:06:07;9.00;99.70
16643;DHT22;8435;52.184;5.406;2023-04-26T06:08:34;9.30;99.90
16643;DHT22;8435;52.184;5.406;2023-04-26T06:11:01;9.70;99.90
16643;DHT22;8435;52.184;5.406;2023-04-26T06:13:28;10.00;99.70
16643;DHT22;8435;52.184;5.406;2023-04-26T06:15:57;10.40;99.90
16643;DHT22;8435;52.184;5.406;2023-04-26T06:18:25;10.80;99.70
16643;DHT22;8435;52.184;5.406;2023-04-26T06:20:51;11.30;99.50
16643;DHT22;8435;52.184;5.406;2023-04-26T06:23:18;11.70;98.90
16643;DHT22;8435;52.184;5.406;2023-04-26T06:25:45;12.00;98.20
16643;DHT22;8435;52.184;5.406;2023-04-26T06:28:12;12.30;97.50
16643;DHT22;8435;52.184;5.406;2023-04-26T06:30:41;12.50;97.00
16643;DHT22;8435;52.184;5.406;2023-04-26T06:33:11;12.60;96.70
16643;DHT22;8435;52.184;5.406;2023-04-26T06:35:39;12.70;96.30
16643;DHT22;8435;52.184;5.406;2023-04-26T06:38:06;12.70;96.20
16643;DHT22;8435;52.184;5.406;2023-04-26T06:40:34;12.70;95.90
16643;DHT22;8435;52.184;5.406;2023-04-26T06:43:03;12.70;95.90
16643;DHT22;8435;52.184;5.406;2023-04-26T06:45:32;12.70;95.70
16643;DHT22;8435;52.184;5.406;2023-04-26T06:47:58;12.70;95.80
16643;DHT22;8435;52.184;5.406;2023-04-26T06:50:28;12.70;95.70
16643;DHT22;8435;52.184;5.406;2023-04-26T06:52:55;12.70;95.70
16643;DHT22;8435;52.184;5.406;2023-04-26T06:55:22;12.80;95.70
16643;DHT22;8435;52.184;5.406;2023-04-26T06:57:49;12.80;95.40
16643;DHT22;8435;52.184;5.406;2023-04-26T07:00:16;12.80;95.20
16643;DHT22;8435;52.184;5.406;2023-04-26T07:02:44;12.90;95.30
16643;DHT22;8435;52.184;5.406;2023-04-26T07:05:10;12.90;95.60
16643;DHT22;8435;52.184;5.406;2023-04-26T07:07:38;13.00;95.80
16643;DHT22;8435;52.184;5.406;2023-04-26T07:10:06;13.20;95.60
16643;DHT22;8435;52.184;5.406;2023-04-26T07:12:34;13.30;95.30
16643;DHT22;8435;52.184;5.406;2023-04-26T07:15:04;13.50;95.20
16643;DHT22;8435;52.184;5.406;2023-04-26T07:17:31;13.60;94.70
16643;DHT22;8435;52.184;5.406;2023-04-26T07:19:58;13.70;94.10
16643;DHT22;8435;52.184;5.406;2023-04-26T07:22:25;13.70;94.10
16643;DHT22;8435;52.184;5.406;2023-04-26T07:24:53;13.80;94.20
16643;DHT22;8435;52.184;5.406;2023-04-26T07:27:20;13.90;94.00
16643;DHT22;8435;52.184;5.406;2023-04-26T07:29:47;13.90;93.90
16643;DHT22;8435;52.184;5.406;2023-04-26T07:32:15;13.90;94.20
16643;DHT22;8435;52.184;5.406;2023-04-26T07:34:42;14.00;94.10
16643;DHT22;8435;52.184;5.406;2023-04-26T07:37:08;14.00;93.90
16643;DHT22;8435;52.184;5.406;2023-04-26T07:39:37;14.10;93.90
16643;DHT22;8435;52.184;5.406;2023-04-26T07:42:05;14.30;94.10
16643;DHT22;8435;52.184;5.406;2023-04-26T07:44:32;14.40;93.90
16643;DHT22;8435;52.184;5.406;2023-04-26T07:46:58;14.50;93.90
16643;DHT22;8435;52.184;5.406;2023-04-26T07:49:25;14.70;94.20
16643;DHT22;8435;52.184;5.406;2023-04-26T07:51:52;14.80;93.30
16643;DHT22;8435;52.184;5.406;2023-04-26T07:54:20;15.00;93.20
16643;DHT22;8435;52.184;5.406;2023-04-26T07:56:48;15.10;93.20
16643;DHT22;8435;52.184;5.406;2023-04-26T07:59:16;15.30;92.50
16643;DHT22;8435;52.184;5.406;2023-04-26T08:01:43;15.40;92.40
16643;DHT22;8435;52.184;5.406;2023-04-26T08:04:10;15.40;92.20
16643;DHT22;8435;52.184;5.406;2023-04-26T08:06:36;15.50;92.00
16643;DHT22;8435;52.184;5.406;2023-04-26T08:09:03;15.60;91.20
16643;DHT22;8435;52.184;5.406;2023-04-26T08:11:30;15.60;91.00
16643;DHT22;8435;52.184;5.406;2023-04-26T08:14:00;15.60;90.20
16643;DHT22;8435;52.184;5.406;2023-04-26T08:16:28;15.50;89.90
16643;DHT22;8435;52.184;5.406;2023-04-26T08:18:55;15.50;89.50
16643;DHT22;8435;52.184;5.406;2023-04-26T08:21:29;15.40;90.10
16643;DHT22;8435;52.184;5.406;2023-04-26T08:23:57;15.30;90.00
16643;DHT22;8435;52.184;5.406;2023-04-26T08:26:23;15.20;88.50
16643;DHT22;8435;52.184;5.406;2023-04-26T08:28:50;15.10;88.80
16643;DHT22;8435;52.184;5.406;2023-04-26T08:31:17;14.90;88.10
16643;DHT22;8435;52.184;5.406;2023-04-26T08:33:45;14.80;88.60
16643;DHT22;8435;52.184;5.406;2023-04-26T08:36:12;14.60;88.70
16643;DHT22;8435;52.184;5.406;2023-04-26T08:38:39;14.50;88.50
16643;DHT22;8435;52.184;5.406;2023-04-26T08:41:09;14.30;87.70
16643;DHT22;8435;52.184;5.406;2023-04-26T08:43:38;14.10;87.50
16643;DHT22;8435;52.184;5.406;2023-04-26T08:46:06;14.00;88.00
16643;DHT22;8435;52.184;5.406;2023-04-26T08:48:36;13.80;88.00
16643;DHT22;8435;52.184;5.406;2023-04-26T08:51:06;13.60;88.30
16643;DHT22;8435;52.184;5.406;2023-04-26T08:53:36;13.50;88.90
16643;DHT22;8435;52.184;5.406;2023-04-26T08:56:04;13.40;89.70
16643;DHT22;8435;52.184;5.406;2023-04-26T08:58:32;13.20;90.20
16643;DHT22;8435;52.184;5.406;2023-04-26T09:01:00;13.10;90.50
16643;DHT22;8435;52.184;5.406;2023-04-26T09:03:28;13.00;90.70
16643;DHT22;8435;52.184;5.406;2023-04-26T09:05:56;12.90;90.60
16643;DHT22;8435;52.184;5.406;2023-04-26T09:08:24;12.80;90.70
16643;DHT22;8435;52.184;5.406;2023-04-26T09:10:52;12.80;90.90
16643;DHT22;8435;52.184;5.406;2023-04-26T09:13:19;12.70;91.50
16643;DHT22;8435;52.184;5.406;2023-04-26T09:15:47;12.70;91.50
16643;DHT22;8435;52.184;5.406;2023-04-26T09:18:21;12.70;91.50
16643;DHT22;8435;52.184;5.406;2023-04-26T09:21:01;12.70;91.50
16643;DHT22;8435;52.184;5.406;2023-04-26T09:23:29;12.70;91.80
16643;DHT22;8435;52.184;5.406;2023-04-26T09:26:15;12.80;92.00
16643;DHT22;8435;52.184;5.406;2023-04-26T09:28:42;12.90;91.40
16643;DHT22;8435;52.184;5.406;2023-04-26T09:31:11;12.90;91.40
16643;DHT22;8435;52.184;5.406;2023-04-26T09:33:56;13.00;91.50
16643;DHT22;8435;52.184;5.406;2023-04-26T09:36:23;13.00;91.10
16643;DHT22;8435;52.184;5.406;2023-04-26T09:38:52;13.10;91.20
16643;DHT22;8435;52.184;5.406;2023-04-26T09:41:18;13.20;90.70
16643;DHT22;8435;52.184;5.406;2023-04-26T09:43:45;13.20;90.80
16643;DHT22;8435;52.184;5.406;2023-04-26T09:46:21;13.40;90.80
16643;DHT22;8435;52.184;5.406;2023-04-26T09:49:01;13.40;90.70
16643;DHT22;8435;52.184;5.406;2023-04-26T09:51:31;13.50;90.10
16643;DHT22;8435;52.184;5.406;2023-04-26T09:53:59;13.60;90.10
16643;DHT22;8435;52.184;5.406;2023-04-26T09:56:26;13.80;90.00
16643;DHT22;8435;52.184;5.406;2023-04-26T09:58:56;13.90;90.20
16643;DHT22;8435;52.184;5.406;2023-04-26T10:01:24;14.00;89.80
16643;DHT22;8435;52.184;5.406;2023-04-26T10:03:55;14.10;89.30
16643;DHT22;8435;52.184;5.406;2023-04-26T10:06:22;14.20;89.00
16643;DHT22;8435;52.184;5.406;2023-04-26T10:08:49;14.20;88.60
16643;DHT22;8435;52.184;5.406;2023-04-26T10:11:17;14.30;87.40
16643;DHT22;8435;52.184;5.406;2023-04-26T10:13:49;14.30;86.60
16643;DHT22;8435;52.184;5.406;2023-04-26T10:16:16;14.30;86.80
16643;DHT22;8435;52.184;5.406;2023-04-26T10:18:44;14.30;87.10
16643;DHT22;8435;52.184;5.406;2023-04-26T10:21:14;14.40;86.70
16643;DHT22;8435;52.184;5.406;2023-04-26T10:23:41;14.40;85.10
16643;DHT22;8435;52.184;5.406;2023-04-26T10:29:23;14.40;84.50
16643;DHT22;8435;52.184;5.406;2023-04-26T10:32:08;14.50;83.50
16643;DHT22;8435;52.184;5.406;2023-04-26T10:34:40;14.50;82.80
16643;DHT22;8435;52.184;5.406;2023-04-26T10:37:11;14.50;83.40
16643;DHT22;8435;52.184;5.406;2023-04-26T10:39:39;14.50;82.80
16643;DHT22;8435;52.184;5.406;2023-04-26T10:42:20;14.50;84.00
16643;DHT22;8435;52.184;5.406;2023-04-26T10:44:52;14.50;83.50
16643;DHT22;8435;52.184;5.406;2023-04-26T10:47:37;14.50;84.20
16643;DHT22;8435;52.184;5.406;2023-04-26T10:50:06;14.60;83.10
16643;DHT22;8435;52.184;5.406;2023-04-26T10:52:34;14.60;83.80
16643;DHT22;8435;52.184;5.406;2023-04-26T10:55:04;14.70;83.30
16643;DHT22;8435;52.184;5.406;2023-04-26T10:57:51;14.70;82.20
16643;DHT22;8435;52.184;5.406;2023-04-26T11:00:30;14.70;81.10
16643;DHT22;8435;52.184;5.406;2023-04-26T11:03:02;14.70;80.90
16643;DHT22;8435;52.184;5.406;2023-04-26T11:05:49;14.80;80.90
16643;DHT22;8435;52.184;5.406;2023-04-26T11:08:18;14.70;81.40
16643;DHT22;8435;52.184;5.406;2023-04-26T11:10:50;14.80;81.30
16643;DHT22;8435;52.184;5.406;2023-04-26T11:13:18;14.80;81.00
16643;DHT22;8435;52.184;5.406;2023-04-26T11:15:47;14.80;81.50
16643;DHT22;8435;52.184;5.406;2023-04-26T11:18:18;14.70;81.30
16643;DHT22;8435;52.184;5.406;2023-04-26T11:20:46;14.70;81.40
16643;DHT22;8435;52.184;5.406;2023-04-26T11:23:13;14.70;82.10
16643;DHT22;8435;52.184;5.406;2023-04-26T11:25:40;14.70;81.90
16643;DHT22;8435;52.184;5.406;2023-04-26T11:28:06;14.70;81.50
16643;DHT22;8435;52.184;5.406;2023-04-26T11:30:34;14.70;81.40
16643;DHT22;8435;52.184;5.406;2023-04-26T11:33:04;14.70;81.00
16643;DHT22;8435;52.184;5.406;2023-04-26T11:35:33;14.80;80.00
16643;DHT22;8435;52.184;5.406;2023-04-26T11:38:04;14.80;80.30
16643;DHT22;8435;52.184;5.406;2023-04-26T11:40:31;14.80;78.70
16643;DHT22;8435;52.184;5.406;2023-04-26T11:43:05;14.90;79.10
16643;DHT22;8435;52.184;5.406;2023-04-26T11:45:33;14.90;78.00
16643;DHT22;8435;52.184;5.406;2023-04-26T11:48:01;14.90;78.80
16643;DHT22;8435;52.184;5.406;2023-04-26T11:50:30;15.00;78.60
16643;DHT22;8435;52.184;5.406;2023-04-26T11:52:59;15.10;77.60
16643;DHT22;8435;52.184;5.406;2023-04-26T11:55:27;15.10;77.40
16643;DHT22;8435;52.184;5.406;2023-04-26T11:57:55;15.20;77.00
16643;DHT22;8435;52.184;5.406;2023-04-26T12:00:23;15.30;78.20
16643;DHT22;8435;52.184;5.406;2023-04-26T12:02:53;15.30;77.50
16643;DHT22;8435;52.184;5.406;2023-04-26T12:05:23;15.40;76.60
16643;DHT22;8435;52.184;5.406;2023-04-26T12:07:52;15.50;77.00
16643;DHT22;8435;52.184;5.406;2023-04-26T12:10:24;15.60;75.90
16643;DHT22;8435;52.184;5.406;2023-04-26T12:12:52;15.60;75.50
16643;DHT22;8435;52.184;5.406;2023-04-26T12:15:25;15.60;76.00
16643;DHT22;8435;52.184;5.406;2023-04-26T12:17:56;15.70;75.20
16643;DHT22;8435;52.184;5.406;2023-04-26T12:20:27;15.70;75.10
16643;DHT22;8435;52.184;5.406;2023-04-26T12:23:06;15.60;74.70
16643;DHT22;8435;52.184;5.406;2023-04-26T12:25:34;15.60;74.50
16643;DHT22;8435;52.184;5.406;2023-04-26T12:28:02;15.40;74.50
16643;DHT22;8435;52.184;5.406;2023-04-26T12:30:30;15.30;73.90
16643;DHT22;8435;52.184;5.406;2023-04-26T12:32:56;15.30;74.90
16643;DHT22;8435;52.184;5.406;2023-04-26T12:35:23;15.20;75.00
16643;DHT22;8435;52.184;5.406;2023-04-26T12:37:51;15.10;74.80
16643;DHT22;8435;52.184;5.406;2023-04-26T12:40:22;15.10;75.10
16643;DHT22;8435;52.184;5.406;2023-04-26T12:42:49;15.10;75.40
16643;DHT22;8435;52.184;5.406;2023-04-26T12:45:21;15.10;75.10
16643;DHT22;8435;52.184;5.406;2023-04-26T12:47:48;15.10;76.20
16643;DHT22;8435;52.184;5.406;2023-04-26T12:50:15;15.10;75.60
16643;DHT22;8435;52.184;5.406;2023-04-26T12:52:44;15.10;75.20
16643;DHT22;8435;52.184;5.406;2023-04-26T12:55:12;15.10;75.00
16643;DHT22;8435;52.184;5.406;2023-04-26T12:57:43;15.10;74.70
16643;DHT22;8435;52.184;5.406;2023-04-26T13:00:11;15.10;74.40
16643;DHT22;8435;52.184;5.406;2023-04-26T13:02:41;15.00;74.00
16643;DHT22;8435;52.184;5.406;2023-04-26T13:05:11;14.90;74.50
16643;DHT22;8435;52.184;5.406;2023-04-26T13:07:41;14.80;74.60
16643;DHT22;8435;52.184;5.406;2023-04-26T13:10:08;14.70;75.00
16643;DHT22;8435;52.184;5.406;2023-04-26T13:12:36;14.60;75.30
16643;DHT22;8435;52.184;5.406;2023-04-26T13:15:05;14.60;74.90
16643;DHT22;8435;52.184;5.406;2023-04-26T13:17:35;14.50;74.60
16643;DHT22;8435;52.184;5.406;2023-04-26T13:20:03;14.30;74.60
16643;DHT22;8435;52.184;5.406;2023-04-26T13:22:31;14.30;74.50
16643;DHT22;8435;52.184;5.406;2023-04-26T13:24:58;14.20;75.20
16643;DHT22;8435;52.184;5.406;2023-04-26T13:27:25;14.00;75.20
16643;DHT22;8435;52.184;5.406;2023-04-26T13:29:52;14.00;75.20
16643;DHT22;8435;52.184;5.406;2023-04-26T13:32:20;13.90;75.10
16643;DHT22;8435;52.184;5.406;2023-04-26T13:34:47;13.80;75.50
16643;DHT22;8435;52.184;5.406;2023-04-26T13:37:14;13.70;77.10
16643;DHT22;8435;52.184;5.406;2023-04-26T13:39:43;13.70;78.40
16643;DHT22;8435;52.184;5.406;2023-04-26T13:42:10;13.60;78.00
16643;DHT22;8435;52.184;5.406;2023-04-26T13:44:36;13.70;78.00
16643;DHT22;8435;52.184;5.406;2023-04-26T13:47:13;13.70;77.50
16643;DHT22;8435;52.184;5.406;2023-04-26T13:49:42;13.70;77.30
16643;DHT22;8435;52.184;5.406;2023-04-26T13:52:09;13.60;77.50
16643;DHT22;8435;52.184;5.406;2023-04-26T13:54:36;13.70;78.00
16643;DHT22;8435;52.184;5.406;2023-04-26T13:57:04;13.70;78.20
16643;DHT22;8435;52.184;5.406;2023-04-26T13:59:31;13.70;78.80
16643;DHT22;8435;52.184;5.406;2023-04-26T14:01:58;13.70;79.10
16643;DHT22;8435;52.184;5.406;2023-04-26T14:04:28;13.80;78.70
16643;DHT22;8435;52.184;5.406;2023-04-26T14:06:56;13.90;78.80
16643;DHT22;8435;52.184;5.406;2023-04-26T14:09:23;14.00;79.10
16643;DHT22;8435;52.184;5.406;2023-04-26T14:11:53;14.00;78.80
16643;DHT22;8435;52.184;5.406;2023-04-26T14:14:22;14.20;79.20
16643;DHT22;8435;52.184;5.406;2023-04-26T14:16:49;14.30;78.80
16643;DHT22;8435;52.184;5.406;2023-04-26T14:19:16;14.30;77.50
16643;DHT22;8435;52.184;5.406;2023-04-26T14:21:43;14.50;76.20
16643;DHT22;8435;52.184;5.406;2023-04-26T14:24:12;14.60;76.20
16643;DHT22;8435;52.184;5.406;2023-04-26T14:26:41;14.60;75.40
16643;DHT22;8435;52.184;5.406;2023-04-26T14:29:08;14.70;75.10
16643;DHT22;8435;52.184;5.406;2023-04-26T14:31:35;14.70;75.50
16643;DHT22;8435;52.184;5.406;2023-04-26T14:34:02;14.80;75.50
16643;DHT22;8435;52.184;5.406;2023-04-26T14:36:28;14.80;74.80
16643;DHT22;8435;52.184;5.406;2023-04-26T14:38:57;14.80;74.90
16643;DHT22;8435;52.184;5.406;2023-04-26T14:41:25;14.80;74.80
16643;DHT22;8435;52.184;5.406;2023-04-26T14:43:52;14.80;74.10
16643;DHT22;8435;52.184;5.406;2023-04-26T14:46:19;14.80;74.00
16643;DHT22;8435;52.184;5.406;2023-04-26T14:48:49;14.80;73.60
16643;DHT22;8435;52.184;5.406;2023-04-26T14:51:16;14.80;73.50
16643;DHT22;8435;52.184;5.406;2023-04-26T14:53:42;14.70;73.60
16643;DHT22;8435;52.184;5.406;2023-04-26T14:56:12;14.80;73.40
16643;DHT22;8435;52.184;5.406;2023-04-26T14:58:40;14.70;73.00
16643;DHT22;8435;52.184;5.406;2023-04-26T15:01:07;14.70;73.10
16643;DHT22;8435;52.184;5.406;2023-04-26T15:03:35;14.60;73.00
16643;DHT22;8435;52.184;5.406;2023-04-26T15:06:01;14.60;73.20
16643;DHT22;8435;52.184;5.406;2023-04-26T15:08:28;14.60;73.60
16643;DHT22;8435;52.184;5.406;2023-04-26T15:10:56;14.60;74.40
16643;DHT22;8435;52.184;5.406;2023-04-26T15:13:22;14.60;74.10
16643;DHT22;8435;52.184;5.406;2023-04-26T15:15:50;14.70;74.70
16643;DHT22;8435;52.184;5.406;2023-04-26T15:18:17;14.60;74.80
16643;DHT22;8435;52.184;5.406;2023-04-26T15:20:44;14.70;74.80
16643;DHT22;8435;52.184;5.406;2023-04-26T15:23:11;14.80;75.30
16643;DHT22;8435;52.184;5.406;2023-04-26T15:25:38;14.80;74.50
16643;DHT22;8435;52.184;5.406;2023-04-26T15:28:05;14.70;74.10
16643;DHT22;8435;52.184;5.406;2023-04-26T15:30:31;14.70;74.10
16643;DHT22;8435;52.184;5.406;2023-04-26T15:33:00;14.70;74.20
16643;DHT22;8435;52.184;5.406;2023-04-26T15:35:29;14.80;74.20
16643;DHT22;8435;52.184;5.406;2023-04-26T15:37:56;14.70;74.40
16643;DHT22;8435;52.184;5.406;2023-04-26T15:40:23;14.80;74.00
16643;DHT22;8435;52.184;5.406;2023-04-26T15:42:50;14.80;74.30
16643;DHT22;8435;52.184;5.406;2023-04-26T15:45:17;14.80;74.10
16643;DHT22;8435;52.184;5.406;2023-04-26T15:47:43;14.80;73.60
16643;DHT22;8435;52.184;5.406;2023-04-26T15:50:12;14.70;73.60
16643;DHT22;8435;52.184;5.406;2023-04-26T15:52:39;14.70;72.90
16643;DHT22;8435;52.184;5.406;2023-04-26T15:55:06;14.70;73.50
16643;DHT22;8435;52.184;5.406;2023-04-26T15:57:34;14.70;73.40
16643;DHT22;8435;52.184;5.406;2023-04-26T16:00:01;14.60;73.80
16643;DHT22;8435;52.184;5.406;2023-04-26T16:02:29;14.60;73.80